Terminal Aerodrome Forecast
Issued by NWS Omaha/Valley, NE

Home | Current Version | Previous Version | Graphics & Text | Print | Product List | Glossary On
Versions: 1 2 3 4 5 6 7 8 9 10 11 12 13 14 15 16 17
000
FTUS43 KOAX 170520
TAFOFK
TAF
KOFK 170520Z 1706/1806 34005KT P6SM FEW250
     FM171600 04005KT P6SM BKN100
     FM172300 10005KT P6SM BKN080
     FM180300 12005KT P6SM BKN050=

USA.gov is the U.S. government's official web portal to all federal, state and local government web resources and services.